sensor_id;sensor_type;location;lat;lon;timestamp;pressure;altitude;pressure_sealevel;temperature;humidity
37972;BME280;23794;48.234;8.344;2022-12-18T00:01:24;95078.28;;;-9.56;72.85
37972;BME280;23794;48.234;8.344;2022-12-18T00:03:51;95067.94;;;-9.53;72.77
37972;BME280;23794;48.234;8.344;2022-12-18T00:06:19;95071.91;;;-9.55;73.85
37972;BME280;23794;48.234;8.344;2022-12-18T00:08:47;95066.72;;;-9.40;77.90
37972;BME280;23794;48.234;8.344;2022-12-18T00:11:16;95062.63;;;-9.20;77.83
37972;BME280;23794;48.234;8.344;2022-12-18T00:13:43;95066.72;;;-9.02;77.03
37972;BME280;23794;48.234;8.344;2022-12-18T00:16:15;95068.34;;;-8.96;76.24
37972;BME280;23794;48.234;8.344;2022-12-18T00:18:42;95075.81;;;-8.93;75.42
37972;BME280;23794;48.234;8.344;2022-12-18T00:21:11;95061.94;;;-9.00;76.62
37972;BME280;23794;48.234;8.344;2022-12-18T00:23:38;95071.78;;;-9.01;76.87
37972;BME280;23794;48.234;8.344;2022-12-18T00:26:10;95079.53;;;-8.94;76.54
37972;BME280;23794;48.234;8.344;2022-12-18T00:28:37;95072.34;;;-8.93;76.59
37972;BME280;23794;48.234;8.344;2022-12-18T00:31:06;95089.84;;;-8.98;76.65
37972;BME280;23794;48.234;8.344;2022-12-18T00:33:33;95087.91;;;-9.07;76.98
37972;BME280;23794;48.234;8.344;2022-12-18T00:36:06;95092.88;;;-9.21;77.77
37972;BME280;23794;48.234;8.344;2022-12-18T00:38:33;95091.56;;;-9.19;77.91
37972;BME280;23794;48.234;8.344;2022-12-18T00:41:00;95094.00;;;-9.12;77.73
37972;BME280;23794;48.234;8.344;2022-12-18T00:43:27;95096.44;;;-9.05;77.45
37972;BME280;23794;48.234;8.344;2022-12-18T00:45:54;95093.28;;;-9.02;77.50
37972;BME280;23794;48.234;8.344;2022-12-18T00:48:21;95094.94;;;-8.91;76.98
37972;BME280;23794;48.234;8.344;2022-12-18T00:50:49;95089.38;;;-8.89;76.88
37972;BME280;23794;48.234;8.344;2022-12-18T00:53:15;95086.13;;;-8.97;77.14
37972;BME280;23794;48.234;8.344;2022-12-18T00:55:42;95096.50;;;-8.95;77.64
37972;BME280;23794;48.234;8.344;2022-12-18T00:58:10;95095.66;;;-9.01;78.09
37972;BME280;23794;48.234;8.344;2022-12-18T01:00:37;95101.75;;;-9.00;78.67
37972;BME280;23794;48.234;8.344;2022-12-18T01:03:04;95106.38;;;-8.90;78.47
37972;BME280;23794;48.234;8.344;2022-12-18T01:05:31;95105.81;;;-8.92;78.03
37972;BME280;23794;48.234;8.344;2022-12-18T01:07:58;95104.22;;;-8.93;78.47
37972;BME280;23794;48.234;8.344;2022-12-18T01:10:25;95097.00;;;-8.98;79.24
37972;BME280;23794;48.234;8.344;2022-12-18T01:12:56;95097.88;;;-8.87;79.02
37972;BME280;23794;48.234;8.344;2022-12-18T01:15:23;95089.13;;;-8.83;79.19
37972;BME280;23794;48.234;8.344;2022-12-18T01:17:52;95097.94;;;-8.82;79.95
37972;BME280;23794;48.234;8.344;2022-12-18T01:20:19;95100.59;;;-8.82;80.27
37972;BME280;23794;48.234;8.344;2022-12-18T01:22:45;95099.56;;;-8.76;80.19
37972;BME280;23794;48.234;8.344;2022-12-18T01:25:12;95100.13;;;-8.69;80.06
37972;BME280;23794;48.234;8.344;2022-12-18T01:27:39;95101.75;;;-8.62;80.19
37972;BME280;23794;48.234;8.344;2022-12-18T01:30:06;95102.81;;;-8.58;80.11
37972;BME280;23794;48.234;8.344;2022-12-18T01:32:33;95097.03;;;-8.50;80.02
37972;BME280;23794;48.234;8.344;2022-12-18T01:35:01;95098.91;;;-8.45;79.92
37972;BME280;23794;48.234;8.344;2022-12-18T01:37:30;95106.66;;;-8.39;79.76
37972;BME280;23794;48.234;8.344;2022-12-18T01:39:56;95097.13;;;-8.29;79.64
37972;BME280;23794;48.234;8.344;2022-12-18T01:42:23;95093.38;;;-8.39;80.03
37972;BME280;23794;48.234;8.344;2022-12-18T01:47:41;95091.00;;;-8.25;79.12
37972;BME280;23794;48.234;8.344;2022-12-18T01:50:46;95106.47;;;-8.22;79.30
37972;BME280;23794;48.234;8.344;2022-12-18T01:53:14;95101.69;;;-8.20;79.24
37972;BME280;23794;48.234;8.344;2022-12-18T01:55:48;95110.50;;;-8.14;78.82
37972;BME280;23794;48.234;8.344;2022-12-18T01:58:17;95111.28;;;-8.13;78.91
37972;BME280;23794;48.234;8.344;2022-12-18T02:00:44;95111.56;;;-8.10;78.74
37972;BME280;23794;48.234;8.344;2022-12-18T02:03:11;95113.44;;;-8.10;79.03
37972;BME280;23794;48.234;8.344;2022-12-18T02:08:12;95110.53;;;-7.98;78.22
37972;BME280;23794;48.234;8.344;2022-12-18T02:10:52;95104.69;;;-7.90;78.05
37972;BME280;23794;48.234;8.344;2022-12-18T02:13:41;95112.41;;;-7.94;78.38
37972;BME280;23794;48.234;8.344;2022-12-18T02:16:39;95108.16;;;-7.95;78.39
37972;BME280;23794;48.234;8.344;2022-12-18T02:27:45;95106.56;;;-7.86;77.81
37972;BME280;23794;48.234;8.344;2022-12-18T02:30:13;95120.16;;;-7.87;77.94
37972;BME280;23794;48.234;8.344;2022-12-18T02:32:43;95109.47;;;-7.97;78.33
37972;BME280;23794;48.234;8.344;2022-12-18T02:35:17;95106.56;;;-7.91;78.18
37972;BME280;23794;48.234;8.344;2022-12-18T02:37:47;95114.81;;;-7.87;78.10
37972;BME280;23794;48.234;8.344;2022-12-18T02:40:15;95104.97;;;-7.92;78.24
37972;BME280;23794;48.234;8.344;2022-12-18T02:42:43;95105.53;;;-7.85;78.04
37972;BME280;23794;48.234;8.344;2022-12-18T02:45:14;95099.91;;;-7.93;78.53
37972;BME280;23794;48.234;8.344;2022-12-18T02:47:42;95099.91;;;-7.88;78.32
37972;BME280;23794;48.234;8.344;2022-12-18T02:50:34;95101.78;;;-7.89;78.28
37972;BME280;23794;48.234;8.344;2022-12-18T02:53:31;95097.03;;;-7.81;78.09
37972;BME280;23794;48.234;8.344;2022-12-18T02:56:20;95091.72;;;-7.81;78.09
37972;BME280;23794;48.234;8.344;2022-12-18T02:58:59;95093.81;;;-7.78;77.89
37972;BME280;23794;48.234;8.344;2022-12-18T03:01:38;95088.78;;;-7.85;78.20
37972;BME280;23794;48.234;8.344;2022-12-18T03:04:12;95089.28;;;-7.88;78.06
37972;BME280;23794;48.234;8.344;2022-12-18T03:06:50;95089.56;;;-7.95;78.20
37972;BME280;23794;48.234;8.344;2022-12-18T03:09:21;95086.34;;;-7.92;78.01
37972;BME280;23794;48.234;8.344;2022-12-18T03:12:12;95095.09;;;-7.96;78.20
37972;BME280;23794;48.234;8.344;2022-12-18T03:17:32;95091.94;;;-7.93;78.03
37972;BME280;23794;48.234;8.344;2022-12-18T03:20:06;95097.22;;;-7.98;78.49
37972;BME280;23794;48.234;8.344;2022-12-18T03:22:35;95096.47;;;-7.89;78.21
37972;BME280;23794;48.234;8.344;2022-12-18T03:25:06;95105.25;;;-7.83;77.93
37972;BME280;23794;48.234;8.344;2022-12-18T03:27:39;95099.13;;;-7.83;77.79
37972;BME280;23794;48.234;8.344;2022-12-18T03:30:12;95098.88;;;-7.82;77.84
37972;BME280;23794;48.234;8.344;2022-12-18T03:32:47;95096.75;;;-7.80;77.80
37972;BME280;23794;48.234;8.344;2022-12-18T03:35:22;95092.22;;;-7.79;77.54
37972;BME280;23794;48.234;8.344;2022-12-18T03:37:49;95088.78;;;-7.80;78.01
37972;BME280;23794;48.234;8.344;2022-12-18T03:40:16;95093.84;;;-7.73;77.82
37972;BME280;23794;48.234;8.344;2022-12-18T03:42:52;95090.91;;;-7.77;77.71
37972;BME280;23794;48.234;8.344;2022-12-18T03:45:35;95100.78;;;-7.72;77.53
37972;BME280;23794;48.234;8.344;2022-12-18T03:48:26;95089.59;;;-7.74;76.55
37972;BME280;23794;48.234;8.344;2022-12-18T03:51:06;95093.28;;;-7.91;75.47
37972;BME280;23794;48.234;8.344;2022-12-18T03:54:08;95101.25;;;-7.96;76.94
37972;BME280;23794;48.234;8.344;2022-12-18T03:56:45;95094.34;;;-7.87;77.36
37972;BME280;23794;48.234;8.344;2022-12-18T03:59:15;95100.19;;;-7.85;77.56
37972;BME280;23794;48.234;8.344;2022-12-18T04:01:46;95098.63;;;-7.80;76.70
37972;BME280;23794;48.234;8.344;2022-12-18T04:04:16;95092.22;;;-7.85;76.23
37972;BME280;23794;48.234;8.344;2022-12-18T04:06:45;95089.25;;;-8.04;74.22
37972;BME280;23794;48.234;8.344;2022-12-18T04:09:14;95095.59;;;-8.15;74.53
37972;BME280;23794;48.234;8.344;2022-12-18T04:11:46;95102.41;;;-8.35;74.17
37972;BME280;23794;48.234;8.344;2022-12-18T04:14:14;95104.78;;;-8.43;74.41
37972;BME280;23794;48.234;8.344;2022-12-18T04:16:44;95109.31;;;-8.44;74.92
37972;BME280;23794;48.234;8.344;2022-12-18T04:19:14;95099.66;;;-8.55;74.07
37972;BME280;23794;48.234;8.344;2022-12-18T04:21:42;95105.47;;;-8.58;74.38
37972;BME280;23794;48.234;8.344;2022-12-18T04:24:11;95103.00;;;-8.75;74.45
37972;BME280;23794;48.234;8.344;2022-12-18T04:26:43;95101.88;;;-8.85;74.54
37972;BME280;23794;48.234;8.344;2022-12-18T04:29:21;95103.72;;;-8.90;74.47
37972;BME280;23794;48.234;8.344;2022-12-18T04:31:48;95106.88;;;-8.93;74.60
37972;BME280;23794;48.234;8.344;2022-12-18T04:34:15;95100.50;;;-8.92;74.49
37972;BME280;23794;48.234;8.344;2022-12-18T04:36:48;95098.63;;;-8.92;74.19
37972;BME280;23794;48.234;8.344;2022-12-18T04:39:15;95096.66;;;-9.12;74.49
37972;BME280;23794;48.234;8.344;2022-12-18T04:41:42;95097.72;;;-9.13;74.83
37972;BME280;23794;48.234;8.344;2022-12-18T04:44:09;95085.19;;;-9.18;74.15
37972;BME280;23794;48.234;8.344;2022-12-18T04:46:35;95091.53;;;-9.24;74.33
37972;BME280;23794;48.234;8.344;2022-12-18T04:49:02;95090.75;;;-9.19;74.14
37972;BME280;23794;48.234;8.344;2022-12-18T04:51:28;95086.72;;;-9.27;74.46
37972;BME280;23794;48.234;8.344;2022-12-18T04:53:55;95094.47;;;-9.20;74.19
37972;BME280;23794;48.234;8.344;2022-12-18T04:56:22;95092.78;;;-9.32;74.51
37972;BME280;23794;48.234;8.344;2022-12-18T04:58:49;95090.38;;;-9.33;74.16
37972;BME280;23794;48.234;8.344;2022-12-18T05:01:17;95094.06;;;-9.39;74.03
37972;BME280;23794;48.234;8.344;2022-12-18T05:03:44;95095.34;;;-9.42;74.04
37972;BME280;23794;48.234;8.344;2022-12-18T05:06:11;95092.94;;;-9.49;74.40
37972;BME280;23794;48.234;8.344;2022-12-18T05:08:38;95091.06;;;-9.48;73.88
37972;BME280;23794;48.234;8.344;2022-12-18T05:11:05;95101.41;;;-9.52;73.68
37972;BME280;23794;48.234;8.344;2022-12-18T05:13:32;95094.47;;;-9.53;73.29
37972;BME280;23794;48.234;8.344;2022-12-18T05:15:59;95090.44;;;-9.61;73.66
37972;BME280;23794;48.234;8.344;2022-12-18T05:18:26;95091.19;;;-9.65;74.09
37972;BME280;23794;48.234;8.344;2022-12-18T05:20:54;95091.19;;;-9.65;73.69
37972;BME280;23794;48.234;8.344;2022-12-18T05:23:21;95095.72;;;-9.66;73.71
37972;BME280;23794;48.234;8.344;2022-12-18T05:25:52;95086.38;;;-9.68;73.78
37972;BME280;23794;48.234;8.344;2022-12-18T05:28:19;95088.06;;;-9.62;73.52
37972;BME280;23794;48.234;8.344;2022-12-18T05:30:54;95099.81;;;-9.80;73.62
37972;BME280;23794;48.234;8.344;2022-12-18T05:33:23;95093.97;;;-9.82;73.72
37972;BME280;23794;48.234;8.344;2022-12-18T05:35:51;95089.66;;;-9.88;73.32
37972;BME280;23794;48.234;8.344;2022-12-18T05:38:19;95085.59;;;-9.96;73.56
37972;BME280;23794;48.234;8.344;2022-12-18T05:40:47;95089.81;;;-10.00;73.75
37972;BME280;23794;48.234;8.344;2022-12-18T05:43:14;95092.47;;;-10.00;73.37
37972;BME280;23794;48.234;8.344;2022-12-18T05:45:47;95084.69;;;-10.07;73.02
37972;BME280;23794;48.234;8.344;2022-12-18T05:48:15;95096.09;;;-10.06;73.19
37972;BME280;23794;48.234;8.344;2022-12-18T05:50:43;95089.69;;;-10.11;72.94
37972;BME280;23794;48.234;8.344;2022-12-18T05:53:18;95092.78;;;-10.19;72.83
37972;BME280;23794;48.234;8.344;2022-12-18T05:55:46;95097.81;;;-10.17;71.84
37972;BME280;23794;48.234;8.344;2022-12-18T05:58:13;95098.47;;;-10.32;71.35
37972;BME280;23794;48.234;8.344;2022-12-18T06:00:45;95097.72;;;-10.28;72.09
37972;BME280;23794;48.234;8.344;2022-12-18T06:03:12;95105.63;;;-10.33;72.60
37972;BME280;23794;48.234;8.344;2022-12-18T06:05:42;95108.75;;;-10.36;73.27
37972;BME280;23794;48.234;8.344;2022-12-18T06:08:09;95107.28;;;-10.27;73.73
37972;BME280;23794;48.234;8.344;2022-12-18T06:10:37;95104.38;;;-10.25;71.91
37972;BME280;23794;48.234;8.344;2022-12-18T06:13:05;95100.78;;;-10.36;71.18
37972;BME280;23794;48.234;8.344;2022-12-18T06:15:32;95105.16;;;-10.47;71.46
37972;BME280;23794;48.234;8.344;2022-12-18T06:18:00;95111.03;;;-10.45;71.69
37972;BME280;23794;48.234;8.344;2022-12-18T06:20:27;95108.56;;;-10.51;72.18
37972;BME280;23794;48.234;8.344;2022-12-18T06:22:59;95120.69;;;-10.56;72.66
37972;BME280;23794;48.234;8.344;2022-12-18T06:25:25;95120.13;;;-10.58;72.06
37972;BME280;23794;48.234;8.344;2022-12-18T06:27:52;95123.78;;;-10.64;72.21
37972;BME280;23794;48.234;8.344;2022-12-18T06:30:19;95125.91;;;-10.61;72.55
37972;BME280;23794;48.234;8.344;2022-12-18T06:32:46;95128.44;;;-10.71;72.24
37972;BME280;23794;48.234;8.344;2022-12-18T06:35:21;95131.94;;;-10.65;72.86
37972;BME280;23794;48.234;8.344;2022-12-18T06:37:48;95136.38;;;-10.71;71.49
37972;BME280;23794;48.234;8.344;2022-12-18T06:40:15;95140.47;;;-10.80;70.98
37972;BME280;23794;48.234;8.344;2022-12-18T06:42:41;95147.19;;;-10.73;71.83
37972;BME280;23794;48.234;8.344;2022-12-18T06:45:08;95146.47;;;-10.68;71.60
37972;BME280;23794;48.234;8.344;2022-12-18T06:47:35;95155.47;;;-10.69;72.52
37972;BME280;23794;48.234;8.344;2022-12-18T06:50:02;95153.06;;;-10.71;72.09
37972;BME280;23794;48.234;8.344;2022-12-18T06:52:31;95159.16;;;-10.70;71.59
37972;BME280;23794;48.234;8.344;2022-12-18T06:54:58;95155.97;;;-10.72;71.10
37972;BME280;23794;48.234;8.344;2022-12-18T06:57:24;95169.34;;;-10.79;72.59
37972;BME280;23794;48.234;8.344;2022-12-18T06:59:51;95170.72;;;-10.76;72.56
37972;BME280;23794;48.234;8.344;2022-12-18T07:02:17;95178.91;;;-10.78;70.90
37972;BME280;23794;48.234;8.344;2022-12-18T07:04:46;95175.94;;;-10.81;71.07
37972;BME280;23794;48.234;8.344;2022-12-18T07:07:14;95179.00;;;-10.90;70.48
37972;BME280;23794;48.234;8.344;2022-12-18T07:09:40;95172.59;;;-10.94;71.46
37972;BME280;23794;48.234;8.344;2022-12-18T07:12:07;95181.16;;;-10.87;72.08
37972;BME280;23794;48.234;8.344;2022-12-18T07:14:34;95183.63;;;-10.80;71.81
37972;BME280;23794;48.234;8.344;2022-12-18T07:17:01;95180.44;;;-10.82;71.42
37972;BME280;23794;48.234;8.344;2022-12-18T07:19:29;95174.41;;;-10.77;71.30
37972;BME280;23794;48.234;8.344;2022-12-18T07:21:56;95184.28;;;-10.90;71.57
37972;BME280;23794;48.234;8.344;2022-12-18T07:24:23;95182.94;;;-10.92;71.52
37972;BME280;23794;48.234;8.344;2022-12-18T07:26:49;95179.31;;;-10.86;70.81
37972;BME280;23794;48.234;8.344;2022-12-18T07:29:16;95180.34;;;-10.87;71.06
37972;BME280;23794;48.234;8.344;2022-12-18T07:31:42;95181.88;;;-10.91;71.43
37972;BME280;23794;48.234;8.344;2022-12-18T07:34:10;95181.88;;;-10.91;71.40
37972;BME280;23794;48.234;8.344;2022-12-18T07:36:38;95194.63;;;-10.88;70.19
37972;BME280;23794;48.234;8.344;2022-12-18T07:39:04;95189.25;;;-10.93;70.82
37972;BME280;23794;48.234;8.344;2022-12-18T07:41:31;95195.28;;;-10.98;71.47
37972;BME280;23794;48.234;8.344;2022-12-18T07:44:09;95195.59;;;-10.77;71.77
37972;BME280;23794;48.234;8.344;2022-12-18T07:46:36;95203.38;;;-10.71;71.09
37972;BME280;23794;48.234;8.344;2022-12-18T07:49:03;95210.28;;;-10.69;71.06
37972;BME280;23794;48.234;8.344;2022-12-18T07:51:29;95203.22;;;-10.64;70.83
37972;BME280;23794;48.234;8.344;2022-12-18T07:53:57;95209.38;;;-10.58;71.13
37972;BME280;23794;48.234;8.344;2022-12-18T07:56:23;95204.81;;;-10.63;71.55
37972;BME280;23794;48.234;8.344;2022-12-18T07:58:56;95204.97;;;-10.52;69.70
37972;BME280;23794;48.234;8.344;2022-12-18T08:01:22;95208.91;;;-10.55;69.18
37972;BME280;23794;48.234;8.344;2022-12-18T08:03:49;95212.53;;;-10.61;70.14
37972;BME280;23794;48.234;8.344;2022-12-18T08:06:18;95208.50;;;-10.64;70.13
37972;BME280;23794;48.234;8.344;2022-12-18T08:08:54;95211.63;;;-10.50;69.63
37972;BME280;23794;48.234;8.344;2022-12-18T08:11:22;95220.03;;;-10.36;69.23
37972;BME280;23794;48.234;8.344;2022-12-18T08:13:48;95220.34;;;-10.32;69.94
37972;BME280;23794;48.234;8.344;2022-12-18T08:16:15;95216.13;;;-10.11;69.68
37972;BME280;23794;48.234;8.344;2022-12-18T08:18:42;95222.09;;;-9.99;69.86
37972;BME280;23794;48.234;8.344;2022-12-18T08:21:13;95220.50;;;-10.00;69.90
37972;BME280;23794;48.234;8.344;2022-12-18T08:23:41;95222.25;;;-9.88;70.09
37972;BME280;23794;48.234;8.344;2022-12-18T08:26:10;95226.88;;;-9.79;69.59
37972;BME280;23794;48.234;8.344;2022-12-18T08:28:37;95225.09;;;-9.73;68.61
37972;BME280;23794;48.234;8.344;2022-12-18T08:31:04;95225.56;;;-9.76;68.34
37972;BME280;23794;48.234;8.344;2022-12-18T08:33:32;95230.38;;;-9.73;68.22
37972;BME280;23794;48.234;8.344;2022-12-18T08:35:59;95228.13;;;-9.59;68.19
37972;BME280;23794;48.234;8.344;2022-12-18T08:38:26;95224.56;;;-9.43;68.67
37972;BME280;23794;48.234;8.344;2022-12-18T08:41:01;95215.69;;;-9.31;68.49
37972;BME280;23794;48.234;8.344;2022-12-18T08:43:29;95212.44;;;-9.38;68.16
37972;BME280;23794;48.234;8.344;2022-12-18T08:46:14;95213.34;;;-9.28;68.43
37972;BME280;23794;48.234;8.344;2022-12-18T08:48:41;95215.66;;;-9.04;67.69
37972;BME280;23794;48.234;8.344;2022-12-18T08:51:11;95204.34;;;-8.94;67.35
37972;BME280;23794;48.234;8.344;2022-12-18T08:53:38;95198.22;;;-8.94;67.73
37972;BME280;23794;48.234;8.344;2022-12-18T08:56:06;95194.38;;;-8.76;68.22
37972;BME280;23794;48.234;8.344;2022-12-18T08:58:34;95193.13;;;-8.64;68.17
37972;BME280;23794;48.234;8.344;2022-12-18T09:01:05;95189.81;;;-8.43;67.65
37972;BME280;23794;48.234;8.344;2022-12-18T09:03:32;95192.66;;;-8.12;68.27
37972;BME280;23794;48.234;8.344;2022-12-18T09:05:59;95186.09;;;-7.94;68.17
37972;BME280;23794;48.234;8.344;2022-12-18T09:08:26;95189.38;;;-7.66;67.75
37972;BME280;23794;48.234;8.344;2022-12-18T09:10:56;95184.41;;;-7.42;67.56
37972;BME280;23794;48.234;8.344;2022-12-18T09:13:22;95193.75;;;-7.40;66.85
37972;BME280;23794;48.234;8.344;2022-12-18T09:15:51;95195.59;;;-7.40;66.87
37972;BME280;23794;48.234;8.344;2022-12-18T09:18:20;95196.16;;;-7.28;67.29
37972;BME280;23794;48.234;8.344;2022-12-18T09:20:47;95192.72;;;-7.23;67.15
37972;BME280;23794;48.234;8.344;2022-12-18T09:23:14;95194.31;;;-7.12;67.42
37972;BME280;23794;48.234;8.344;2022-12-18T09:25:40;95196.44;;;-6.98;67.29
37972;BME280;23794;48.234;8.344;2022-12-18T09:28:15;95194.06;;;-6.90;66.98
37972;BME280;23794;48.234;8.344;2022-12-18T09:30:45;95200.69;;;-6.82;67.20
37972;BME280;23794;48.234;8.344;2022-12-18T09:33:12;95193.78;;;-6.67;66.98
37972;BME280;23794;48.234;8.344;2022-12-18T09:35:40;95200.97;;;-6.63;67.11
37972;BME280;23794;48.234;8.344;2022-12-18T09:38:09;95190.56;;;-6.54;67.01
37972;BME280;23794;48.234;8.344;2022-12-18T09:40:44;95193.75;;;-6.47;66.63
37972;BME280;23794;48.234;8.344;2022-12-18T09:43:42;95195.38;;;-6.41;66.94
37972;BME280;23794;48.234;8.344;2022-12-18T09:46:24;95190.00;;;-6.20;66.75
37972;BME280;23794;48.234;8.344;2022-12-18T09:48:57;95185.69;;;-6.05;67.09
37972;BME280;23794;48.234;8.344;2022-12-18T09:51:30;95185.66;;;-5.90;66.61
37972;BME280;23794;48.234;8.344;2022-12-18T09:54:02;95182.63;;;-5.73;66.78
37972;BME280;23794;48.234;8.344;2022-12-18T09:56:35;95189.78;;;-5.58;66.02
37972;BME280;23794;48.234;8.344;2022-12-18T09:59:04;95191.13;;;-5.61;66.60
37972;BME280;23794;48.234;8.344;2022-12-18T10:01:32;95194.03;;;-5.57;66.60
37972;BME280;23794;48.234;8.344;2022-12-18T10:04:09;95194.50;;;-5.39;66.61
37972;BME280;23794;48.234;8.344;2022-12-18T10:15:13;95205.31;;;-4.70;66.70
37972;BME280;23794;48.234;8.344;2022-12-18T10:17:51;95197.09;;;-4.50;66.07
37972;BME280;23794;48.234;8.344;2022-12-18T10:20:44;95202.09;;;-4.38;65.98
37972;BME280;23794;48.234;8.344;2022-12-18T10:23:26;95204.84;;;-4.19;65.99
37972;BME280;23794;48.234;8.344;2022-12-18T10:26:32;95196.44;;;-4.07;65.50
37972;BME280;23794;48.234;8.344;2022-12-18T10:28:53;95199.28;;;-3.98;65.67
37972;BME280;23794;48.234;8.344;2022-12-18T10:31:22;95196.28;;;-3.91;65.63
37972;BME280;23794;48.234;8.344;2022-12-18T10:33:51;95192.22;;;-3.83;65.58
37972;BME280;23794;48.234;8.344;2022-12-18T10:36:18;95185.63;;;-3.72;65.55
37972;BME280;23794;48.234;8.344;2022-12-18T10:38:44;95188.06;;;-3.51;65.53
37972;BME280;23794;48.234;8.344;2022-12-18T10:43:43;95185.50;;;-3.18;65.18
37972;BME280;23794;48.234;8.344;2022-12-18T10:53:52;95166.59;;;-2.56;64.77
37972;BME280;23794;48.234;8.344;2022-12-18T10:56:20;95165.91;;;-2.29;64.39
37972;BME280;23794;48.234;8.344;2022-12-18T10:59:02;95167.53;;;-2.14;63.12
37972;BME280;23794;48.234;8.344;2022-12-18T11:04:18;95149.91;;;-1.78;63.14
37972;BME280;23794;48.234;8.344;2022-12-18T11:07:05;95159.28;;;-1.75;62.22
37972;BME280;23794;48.234;8.344;2022-12-18T11:09:36;95161.66;;;-1.60;62.63
37972;BME280;23794;48.234;8.344;2022-12-18T11:12:19;95151.28;;;-1.53;62.56
37972;BME280;23794;48.234;8.344;2022-12-18T11:14:51;95150.59;;;-1.30;62.12
37972;BME280;23794;48.234;8.344;2022-12-18T11:19:58;95138.28;;;-1.09;62.39
37972;BME280;23794;48.234;8.344;2022-12-18T11:22:31;95145.94;;;-1.02;61.39
37972;BME280;23794;48.234;8.344;2022-12-18T11:25:02;95146.03;;;-1.07;61.69
37972;BME280;23794;48.234;8.344;2022-12-18T11:28:02;95152.59;;;-0.99;61.80
37972;BME280;23794;48.234;8.344;2022-12-18T11:30:32;95150.09;;;-0.96;62.49
37972;BME280;23794;48.234;8.344;2022-12-18T11:33:19;95149.53;;;-0.70;61.67
37972;BME280;23794;48.234;8.344;2022-12-18T11:35:51;95149.22;;;-0.69;61.18
37972;BME280;23794;48.234;8.344;2022-12-18T11:38:34;95154.47;;;-0.63;61.30
37972;BME280;23794;48.234;8.344;2022-12-18T11:44:15;95165.22;;;-0.41;61.28
37972;BME280;23794;48.234;8.344;2022-12-18T11:46:49;95164.34;;;-0.50;61.62
37972;BME280;23794;48.234;8.344;2022-12-18T11:49:32;95150.63;;;-0.17;60.99
37972;BME280;23794;48.234;8.344;2022-12-18T11:52:19;95151.59;;;-0.13;60.24
37972;BME280;23794;48.234;8.344;2022-12-18T11:54:51;95147.69;;;-0.07;61.23
37972;BME280;23794;48.234;8.344;2022-12-18T12:00:21;95134.69;;;-0.05;60.67
37972;BME280;23794;48.234;8.344;2022-12-18T12:05:44;95123.66;;;0.15;61.16
37972;BME280;23794;48.234;8.344;2022-12-18T12:11:08;95128.69;;;0.39;60.96
37972;BME280;23794;48.234;8.344;2022-12-18T12:16:43;95130.44;;;0.61;60.65
37972;BME280;23794;48.234;8.344;2022-12-18T12:21:49;95119.94;;;0.33;61.61
37972;BME280;23794;48.234;8.344;2022-12-18T12:24:45;95117.75;;;0.44;61.36
37972;BME280;23794;48.234;8.344;2022-12-18T12:35:56;95120.72;;;0.34;61.44
37972;BME280;23794;48.234;8.344;2022-12-18T12:38:37;95131.75;;;0.15;61.98
37972;BME280;23794;48.234;8.344;2022-12-18T12:41:13;95126.81;;;0.08;62.61
37972;BME280;23794;48.234;8.344;2022-12-18T12:44:06;95138.41;;;0.17;62.43
37972;BME280;23794;48.234;8.344;2022-12-18T12:46:38;95127.19;;;0.24;62.72
37972;BME280;23794;48.234;8.344;2022-12-18T12:49:13;95130.31;;;0.17;62.48
37972;BME280;23794;48.234;8.344;2022-12-18T12:51:45;95131.63;;;0.20;62.81
37972;BME280;23794;48.234;8.344;2022-12-18T12:54:21;95137.78;;;0.20;62.86
37972;BME280;23794;48.234;8.344;2022-12-18T12:56:50;95136.03;;;0.16;63.35
37972;BME280;23794;48.234;8.344;2022-12-18T12:59:26;95130.97;;;0.14;63.02
37972;BME280;23794;48.234;8.344;2022-12-18T13:02:03;95129.97;;;0.10;63.45
37972;BME280;23794;48.234;8.344;2022-12-18T13:04:42;95141.25;;;0.12;63.42
37972;BME280;23794;48.234;8.344;2022-12-18T13:07:16;95123.50;;;0.11;64.21
37972;BME280;23794;48.234;8.344;2022-12-18T13:15:34;95121.00;;;0.23;63.71
37972;BME280;23794;48.234;8.344;2022-12-18T13:20:38;95122.88;;;0.14;64.18
37972;BME280;23794;48.234;8.344;2022-12-18T13:25:59;95123.72;;;0.23;64.05
37972;BME280;23794;48.234;8.344;2022-12-18T13:31:03;95126.59;;;0.36;64.37
37972;BME280;23794;48.234;8.344;2022-12-18T13:33:38;95116.75;;;0.31;63.79
37972;BME280;23794;48.234;8.344;2022-12-18T13:36:28;95120.41;;;-0.14;64.73
37972;BME280;23794;48.234;8.344;2022-12-18T13:39:21;95129.69;;;-0.20;65.48
37972;BME280;23794;48.234;8.344;2022-12-18T13:44:36;95117.03;;;-0.19;65.61
37972;BME280;23794;48.234;8.344;2022-12-18T13:49:52;95115.25;;;-0.24;65.89
37972;BME280;23794;48.234;8.344;2022-12-18T13:52:22;95110.94;;;-0.34;66.05
37972;BME280;23794;48.234;8.344;2022-12-18T13:54:54;95109.66;;;-0.37;66.29
37972;BME280;23794;48.234;8.344;2022-12-18T13:57:32;95114.41;;;-0.33;66.52
37972;BME280;23794;48.234;8.344;2022-12-18T14:02:51;95116.94;;;-0.37;66.58
37972;BME280;23794;48.234;8.344;2022-12-18T14:07:49;95115.91;;;-0.50;66.71
37972;BME280;23794;48.234;8.344;2022-12-18T14:10:18;95123.56;;;-0.66;66.99
37972;BME280;23794;48.234;8.344;2022-12-18T14:13:07;95123.53;;;-0.75;67.48
37972;BME280;23794;48.234;8.344;2022-12-18T14:15:41;95120.81;;;-0.97;67.98
37972;BME280;23794;48.234;8.344;2022-12-18T14:20:43;95113.09;;;-1.13;68.37
37972;BME280;23794;48.234;8.344;2022-12-18T14:23:35;95112.41;;;-1.19;68.64
37972;BME280;23794;48.234;8.344;2022-12-18T14:26:19;95119.72;;;-1.33;69.04
37972;BME280;23794;48.234;8.344;2022-12-18T14:28:46;95126.31;;;-1.39;69.32
37972;BME280;23794;48.234;8.344;2022-12-18T14:31:31;95127.84;;;-1.61;70.21
37972;BME280;23794;48.234;8.344;2022-12-18T14:33:58;95130.72;;;-1.85;71.31
37972;BME280;23794;48.234;8.344;2022-12-18T14:36:27;95126.16;;;-1.85;71.07
37972;BME280;23794;48.234;8.344;2022-12-18T14:38:56;95122.78;;;-1.90;71.09
37972;BME280;23794;48.234;8.344;2022-12-18T14:41:24;95129.75;;;-1.89;71.37
37972;BME280;23794;48.234;8.344;2022-12-18T14:43:52;95140.59;;;-1.94;71.40
37972;BME280;23794;48.234;8.344;2022-12-18T14:49:01;95143.16;;;-2.17;71.66
37972;BME280;23794;48.234;8.344;2022-12-18T14:51:30;95147.50;;;-2.21;71.68
37972;BME280;23794;48.234;8.344;2022-12-18T14:54:00;95137.66;;;-2.26;71.96
37972;BME280;23794;48.234;8.344;2022-12-18T14:56:43;95144.94;;;-2.26;71.98
37972;BME280;23794;48.234;8.344;2022-12-18T14:59:21;95138.44;;;-2.39;72.43